Time;durP1;ratioP1;P1;durP2;ratioP2;P2;SDS_P1;SDS_P2;PMS_P1;PMS_P2;Temp;Humidity;BMP_temperature;BMP_pressure;BME280_temperature;BME280_humidity;BME280_pressure;Samples;Min_cycle;Max_cycle;Signal;HPM_P1;HPM_P2
2022/04/13 00:02:02;;;;;;;8.33;7.20;;;;;;;9.69;47.22;101329.50;5026483;28;20787;-54
2022/04/13 00:04:28;;;;;;;9.63;6.73;;;;;;;9.84;49.61;101321.78;5026078;28;20233;-53
2022/04/13 00:06:56;;;;;;;9.17;7.73;;;;;;;9.85;49.23;101323.53;5028354;28;20283;-54
2022/04/13 00:09:22;;;;;;;10.50;7.93;;;;;;;9.83;48.23;101321.75;5024436;28;20413;-54
2022/04/13 00:11:48;;;;;;;8.50;7.60;;;;;;;9.81;48.55;101327.00;5029416;28;20327;-53
2022/04/13 00:14:15;;;;;;;12.17;7.00;;;;;;;9.70;47.74;101324.25;5025490;28;20284;-54
2022/04/13 00:16:42;;;;;;;9.90;7.30;;;;;;;9.77;48.13;101317.34;5026083;28;20594;-53
2022/04/13 00:19:08;;;;;;;9.07;7.83;;;;;;;9.73;48.94;101320.78;5021961;28;20232;-54
2022/04/13 00:21:35;;;;;;;8.83;7.10;;;;;;;9.62;49.54;101320.66;5026032;28;20229;-54
2022/04/13 00:24:02;;;;;;;10.17;7.17;;;;;;;9.62;49.20;101330.25;5026189;28;20739;-54
2022/04/13 00:26:29;;;;;;;11.50;8.07;;;;;;;9.48;49.12;101325.72;5030339;28;20239;-54
2022/04/13 00:28:55;;;;;;;7.27;6.57;;;;;;;9.48;48.58;101322.25;5003396;28;20232;-54
2022/04/13 00:31:21;;;;;;;8.90;7.93;;;;;;;9.48;49.30;101317.88;5004423;28;21012;-54
2022/04/13 00:33:48;;;;;;;8.13;7.33;;;;;;;9.43;49.23;101319.53;5010015;28;20230;-54
2022/04/13 00:36:14;;;;;;;8.00;6.97;;;;;;;9.42;50.00;101312.53;5008298;28;20800;-53
2022/04/13 00:38:40;;;;;;;9.73;7.43;;;;;;;9.41;49.05;101316.03;5008812;28;20264;-55
2022/04/13 00:41:08;;;;;;;13.80;7.97;;;;;;;9.53;48.55;101310.94;5025622;28;20264;-53
2022/04/13 00:43:35;;;;;;;9.00;7.13;;;;;;;9.63;49.81;101308.44;5023968;28;20236;-53
2022/04/13 00:46:01;;;;;;;9.83;6.57;;;;;;;9.47;49.88;101310.84;5024304;28;20239;-54
2022/04/13 00:48:31;;;;;;;9.87;7.67;;;;;;;9.51;49.38;101301.28;5017376;28;20256;-54
2022/04/13 00:50:57;;;;;;;9.17;7.83;;;;;;;9.54;50.35;101304.81;5009547;28;20287;-54
2022/04/13 00:53:25;;;;;;;9.00;7.60;;;;;;;9.49;50.40;101309.13;5026202;28;20240;-54
2022/04/13 00:55:55;;;;;;;8.83;7.50;;;;;;;9.42;50.77;101312.53;5016017;28;20245;-53
2022/04/13 00:58:24;;;;;;;8.77;7.50;;;;;;;9.42;50.15;101315.16;5024428;28;20281;-53
2022/04/13 01:00:51;;;;;;;7.90;6.40;;;;;;;9.38;50.14;101315.97;5020172;28;20256;-54
2022/04/13 01:03:19;;;;;;;12.63;8.20;;;;;;;9.39;50.25;101319.47;5022806;28;20657;-54
2022/04/13 01:05:46;;;;;;;10.63;8.37;;;;;;;9.43;50.45;101323.91;5008502;28;20299;-54
2022/04/13 01:08:14;;;;;;;8.63;7.07;;;;;;;9.34;50.83;101316.81;5012905;28;20228;-54
2022/04/13 01:10:42;;;;;;;10.37;7.30;;;;;;;9.17;50.71;101320.94;5028132;28;20233;-53
2022/04/13 01:13:08;;;;;;;13.07;8.23;;;;;;;9.33;50.08;101322.88;5024128;28;20240;-54
2022/04/13 01:15:36;;;;;;;10.17;7.87;;;;;;;9.26;50.52;101321.91;5019058;28;20258;-53
2022/04/13 01:18:03;;;;;;;9.77;7.93;;;;;;;9.30;51.39;101328.09;5024626;28;20236;-53
2022/04/13 01:20:29;;;;;;;8.70;7.70;;;;;;;9.36;50.65;101317.69;5020367;28;20236;-56
2022/04/13 01:22:57;;;;;;;9.93;7.67;;;;;;;9.08;50.82;101316.44;5020260;28;20322;-53
2022/04/13 01:25:24;;;;;;;11.13;7.43;;;;;;;9.20;52.22;101318.38;5017681;28;20690;-54
2022/04/13 01:27:50;;;;;;;8.00;7.20;;;;;;;9.14;51.02;101315.66;5027372;28;20264;-54
2022/04/13 01:30:16;;;;;;;13.83;7.43;;;;;;;9.16;51.60;101304.34;5010403;28;20225;-54
2022/04/13 01:32:43;;;;;;;10.03;7.93;;;;;;;9.11;51.36;101307.75;5019598;28;20244;-54
2022/04/13 01:35:11;;;;;;;11.57;7.40;;;;;;;9.20;51.45;101311.38;5019526;28;20259;-54
2022/04/13 01:37:37;;;;;;;10.00;8.30;;;;;;;9.17;52.27;101310.47;5017159;28;20310;-54
2022/04/13 01:40:06;;;;;;;8.57;7.30;;;;;;;9.03;52.97;101308.50;5015990;28;20670;-54
2022/04/13 01:42:33;;;;;;;11.57;7.73;;;;;;;9.11;52.33;101310.38;5038662;28;20295;-53
2022/04/13 01:45:00;;;;;;;8.33;6.93;;;;;;;9.06;52.86;101312.94;5019499;28;20240;-55
2022/04/13 01:47:26;;;;;;;10.87;7.67;;;;;;;9.04;51.98;101302.41;5024910;28;20290;-54
2022/04/13 01:49:52;;;;;;;15.40;8.10;;;;;;;8.98;53.65;101309.28;5017427;28;20595;-53
2022/04/13 01:52:19;;;;;;;11.33;7.57;;;;;;;8.92;52.50;101307.47;5023453;28;20294;-54
2022/04/13 01:54:45;;;;;;;10.50;7.73;;;;;;;8.95;53.71;101309.25;5014901;28;20262;-54
2022/04/13 01:57:13;;;;;;;8.50;7.07;;;;;;;8.97;53.55;101310.16;5021411;28;20928;-54
2022/04/13 01:59:39;;;;;;;8.37;7.50;;;;;;;8.99;52.43;101311.94;5022820;28;20319;-55
2022/04/13 02:02:06;;;;;;;9.80;7.80;;;;;;;8.95;54.45;101315.38;5024599;28;20503;-53
2022/04/13 02:04:32;;;;;;;12.40;7.80;;;;;;;9.08;54.05;101309.44;5022702;28;20321;-52
2022/04/13 02:06:59;;;;;;;12.20;8.10;;;;;;;9.16;52.72;101306.06;5018069;28;20691;-53
2022/04/13 02:09:25;;;;;;;10.50;8.03;;;;;;;9.07;53.08;101315.56;5012984;28;20220;-54
2022/04/13 02:11:52;;;;;;;9.07;8.03;;;;;;;8.77;53.74;101300.25;5026827;28;20232;-54
2022/04/13 02:14:19;;;;;;;14.10;7.63;;;;;;;8.93;53.87;101305.75;5023775;28;20314;-54
2022/04/13 02:16:46;;;;;;;12.47;8.63;;;;;;;8.86;54.36;101302.16;5020020;28;20714;-53
2022/04/13 02:19:12;;;;;;;9.40;8.40;;;;;;;8.75;53.86;101307.22;5024118;28;20237;-54
2022/04/13 02:21:39;;;;;;;9.90;7.20;;;;;;;8.82;54.77;101293.38;5023963;28;20697;-54
2022/04/13 02:24:07;;;;;;;8.93;7.43;;;;;;;8.76;54.59;101297.63;5024416;28;20228;-54
2022/04/13 02:26:33;;;;;;;12.37;7.40;;;;;;;8.77;55.23;101295.00;5023842;28;20710;-54
2022/04/13 02:29:00;;;;;;;11.77;7.73;;;;;;;8.67;55.21;101293.13;5023196;28;20722;-54
2022/04/13 02:31:27;;;;;;;12.60;7.73;;;;;;;8.69;54.90;101290.53;5009326;28;20237;-53
2022/04/13 02:33:56;;;;;;;13.40;8.50;;;;;;;8.83;54.83;101284.66;5010195;28;20272;-53
2022/04/13 02:36:22;;;;;;;9.37;7.13;;;;;;;8.68;55.17;101288.78;5020459;28;20240;-53
2022/04/13 02:38:48;;;;;;;12.93;7.80;;;;;;;8.72;54.96;101286.22;5022829;28;20641;-52
2022/04/13 02:41:15;;;;;;;10.93;8.37;;;;;;;8.64;55.47;101284.34;5022110;28;20687;-54
2022/04/13 02:43:41;;;;;;;10.57;7.93;;;;;;;8.70;55.43;101287.06;5023908;28;20341;-53
2022/04/13 02:46:07;;;;;;;11.77;8.87;;;;;;;8.76;54.67;101287.16;5018088;28;20282;-54
2022/04/13 02:48:35;;;;;;;11.23;8.47;;;;;;;8.78;54.97;101290.69;5023354;28;20754;-53
2022/04/13 02:51:01;;;;;;;11.17;7.87;;;;;;;8.57;54.46;101286.00;5017549;28;20252;-53
2022/04/13 02:53:30;;;;;;;8.57;7.67;;;;;;;8.78;55.12;101285.44;5027218;28;20247;-54
2022/04/13 02:55:56;;;;;;;9.50;7.33;;;;;;;8.61;54.61;101279.94;5024298;28;20233;-54
2022/04/13 02:58:23;;;;;;;11.27;7.80;;;;;;;8.54;55.36;101284.19;5021958;28;20233;-54
2022/04/13 03:00:49;;;;;;;8.83;6.90;;;;;;;8.62;56.06;101284.31;5018785;28;20236;-54
2022/04/13 03:03:16;;;;;;;9.77;7.50;;;;;;;8.50;54.41;101279.78;5018317;28;20267;-54
2022/04/13 03:05:44;;;;;;;9.07;7.20;;;;;;;8.60;56.30;101278.19;5040585;28;20267;-54
2022/04/13 03:08:11;;;;;;;10.10;7.97;;;;;;;8.44;55.07;101279.66;5026496;28;20714;-54
2022/04/13 03:10:37;;;;;;;11.17;8.23;;;;;;;8.54;55.96;101276.34;5027090;28;20317;-53
2022/04/13 03:13:04;;;;;;;12.50;8.23;;;;;;;8.56;55.19;101279.88;5026983;28;20252;-53
2022/04/13 03:15:30;;;;;;;11.07;7.73;;;;;;;8.38;55.74;101269.09;5024943;28;20250;-54
2022/04/13 03:17:57;;;;;;;10.27;7.90;;;;;;;8.35;55.69;101269.00;5025154;28;20252;-53
2022/04/13 03:20:23;;;;;;;10.70;7.90;;;;;;;8.37;56.00;101267.31;5024460;28;20317;-54
2022/04/13 03:22:51;;;;;;;13.43;9.00;;;;;;;8.31;56.14;101269.81;5024504;28;20236;-54
2022/04/13 03:25:17;;;;;;;10.70;7.63;;;;;;;8.22;56.68;101272.28;5026677;28;20438;-53
2022/04/13 03:27:44;;;;;;;9.87;8.73;;;;;;;8.30;56.13;101270.69;5027228;28;20240;-53
2022/04/13 03:30:13;;;;;;;9.90;8.03;;;;;;;8.27;56.38;101271.50;5027156;28;20286;-53
2022/04/13 03:32:40;;;;;;;12.53;8.17;;;;;;;8.35;55.95;101269.00;5023410;28;20607;-53
2022/04/13 03:35:07;;;;;;;9.50;7.53;;;;;;;8.30;56.77;101265.44;5022368;28;20981;-53
2022/04/13 03:37:34;;;;;;;9.33;7.87;;;;;;;8.38;57.80;101265.59;5026357;28;20239;-55
2022/04/13 03:40:02;;;;;;;11.13;8.30;;;;;;;8.24;56.96;101273.19;5009831;28;20248;-54
2022/04/13 03:42:33;;;;;;;12.40;7.73;;;;;;;8.26;57.97;101266.25;5027497;28;20250;-54
2022/04/13 03:45:02;;;;;;;10.13;7.83;;;;;;;8.25;57.29;101269.69;5026751;28;20703;-53
2022/04/13 03:47:28;;;;;;;10.30;8.20;;;;;;;8.20;56.73;101268.75;5022993;28;21062;-54
2022/04/13 03:49:55;;;;;;;12.30;9.03;;;;;;;8.22;57.71;101270.56;5033219;28;20288;-54
2022/04/13 03:52:22;;;;;;;12.10;8.23;;;;;;;8.18;57.25;101271.38;5029711;28;20232;-53
2022/04/13 03:54:48;;;;;;;9.53;8.50;;;;;;;8.33;58.27;101274.22;5029592;28;20740;-54
2022/04/13 03:57:16;;;;;;;12.27;7.93;;;;;;;8.25;56.98;101275.84;5034573;28;20305;-53
2022/04/13 03:59:42;;;;;;;11.30;8.67;;;;;;;8.24;56.90;101278.41;5034333;28;20261;-53
2022/04/13 04:02:08;;;;;;;11.77;7.77;;;;;;;8.08;57.28;101275.53;5026289;28;20252;-54
2022/04/13 04:04:35;;;;;;;10.00;8.10;;;;;;;8.09;58.71;101282.53;5026217;28;20255;-53
2022/04/13 04:07:01;;;;;;;9.73;8.30;;;;;;;8.11;57.09;101283.44;5024041;28;20260;-53
2022/04/13 04:09:27;;;;;;;9.93;8.00;;;;;;;8.17;57.72;101285.28;5030578;28;20293;-53
2022/04/13 04:11:54;;;;;;;10.90;8.20;;;;;;;8.13;57.64;101288.69;5027490;28;20279;-53
2022/04/13 04:14:21;;;;;;;9.87;8.03;;;;;;;8.05;57.82;101292.91;5035117;28;20260;-54
2022/04/13 04:16:48;;;;;;;15.20;9.20;;;;;;;8.02;57.71;101295.47;5027509;28;20263;-53
2022/04/13 04:19:14;;;;;;;10.67;7.93;;;;;;;7.99;57.83;101285.81;5027138;28;21562;-53
2022/04/13 04:21:40;;;;;;;12.50;8.80;;;;;;;7.87;59.09;101290.84;5027243;28;20281;-53
2022/04/13 04:24:08;;;;;;;15.23;8.53;;;;;;;7.79;59.00;101288.09;5024998;28;20244;-55
2022/04/13 04:26:34;;;;;;;14.03;8.93;;;;;;;8.07;58.19;101283.34;5019993;28;20670;-54
2022/04/13 04:29:00;;;;;;;14.50;8.87;;;;;;;8.05;58.61;101300.75;5023996;28;20983;-54
2022/04/13 04:34:08;;;;;;;9.60;8.60;;;;;;;7.93;57.85;101290.94;5010090;28;20673;-54
2022/04/13 04:36:35;;;;;;;10.80;8.13;;;;;;;7.95;57.72;101299.69;5020792;28;20241;-54
2022/04/13 04:39:01;;;;;;;10.20;8.53;;;;;;;7.86;58.57;101289.06;5024169;28;20649;-53
2022/04/13 04:41:28;;;;;;;10.50;9.40;;;;;;;7.83;58.78;101289.03;5021747;28;20233;-54
2022/04/13 04:43:54;;;;;;;11.90;9.07;;;;;;;7.86;58.06;101286.44;5016744;28;20780;-54
2022/04/13 04:46:20;;;;;;;11.77;8.37;;;;;;;7.95;58.37;101272.69;5023706;28;20310;-54
2022/04/13 04:48:48;;;;;;;11.43;8.90;;;;;;;7.96;58.69;101291.00;5025015;28;20290;-53
2022/04/13 04:51:15;;;;;;;11.93;7.93;;;;;;;8.06;57.82;101281.59;5024498;28;20240;-55
2022/04/13 04:53:41;;;;;;;9.93;7.77;;;;;;;8.00;58.69;101285.00;5022272;28;20251;-53
2022/04/13 04:56:08;;;;;;;13.97;8.93;;;;;;;8.00;57.80;101282.38;5023408;28;20306;-54
2022/04/13 04:58:34;;;;;;;12.13;8.53;;;;;;;7.85;58.82;101297.75;5017275;28;20240;-54
2022/04/13 05:01:00;;;;;;;12.73;8.70;;;;;;;7.82;59.22;101297.69;5021101;28;20970;-54
2022/04/13 05:03:27;;;;;;;15.00;8.93;;;;;;;7.95;59.10;101298.81;5013468;28;20233;-54
2022/04/13 05:05:54;;;;;;;13.67;8.83;;;;;;;8.03;59.51;101308.56;5020643;28;20302;-53
2022/04/13 05:08:21;;;;;;;13.00;9.47;;;;;;;7.98;58.96;101305.00;5006990;28;20283;-54
2022/04/13 05:10:51;;;;;;;14.00;8.77;;;;;;;8.20;58.83;101294.91;5023997;28;20260;-54
2022/04/13 05:13:17;;;;;;;11.20;9.63;;;;;;;8.14;58.51;101295.66;5002696;28;20319;-54
2022/04/13 05:15:44;;;;;;;13.27;8.20;;;;;;;8.04;59.21;101289.41;5024628;28;20233;-54
2022/04/13 05:18:11;;;;;;;11.83;8.57;;;;;;;8.09;58.46;101295.59;5020162;28;20323;-54
2022/04/13 05:20:37;;;;;;;11.93;9.47;;;;;;;8.25;58.27;101303.72;5023989;28;20310;-54
2022/04/13 05:23:05;;;;;;;12.90;9.53;;;;;;;8.27;58.19;101302.00;5024067;28;20228;-54
2022/04/13 05:25:31;;;;;;;12.70;9.83;;;;;;;8.17;59.10;101303.56;5017417;28;20237;-54
2022/04/13 05:27:59;;;;;;;11.47;8.77;;;;;;;8.28;57.98;101303.78;5022509;28;20224;-54
2022/04/13 05:30:25;;;;;;;14.63;9.07;;;;;;;8.09;58.56;101313.91;5014082;28;20741;-54
2022/04/13 05:32:56;;;;;;;8.80;7.17;;;;;;;8.06;57.99;101311.22;5020521;28;20262;-53
2022/04/13 05:35:23;;;;;;;11.90;8.43;;;;;;;8.20;58.72;101302.75;5021069;28;20255;-53
2022/04/13 05:37:50;;;;;;;10.77;8.47;;;;;;;8.30;58.61;101302.94;5028580;28;20224;-53
2022/04/13 05:40:17;;;;;;;13.47;8.80;;;;;;;8.38;57.62;101305.72;5020012;28;20722;-54
2022/04/13 05:42:43;;;;;;;13.37;8.93;;;;;;;8.35;57.40;101309.16;5030502;28;20730;-55
2022/04/13 05:45:10;;;;;;;11.80;8.57;;;;;;;8.39;58.01;101323.22;5023282;28;20256;-55
2022/04/13 05:47:38;;;;;;;13.70;10.03;;;;;;;8.36;57.35;101324.00;5018790;28;20362;-55
2022/04/13 05:50:05;;;;;;;11.20;8.80;;;;;;;8.22;58.16;101324.63;5023066;28;20748;-54
2022/04/13 05:52:32;;;;;;;12.00;9.70;;;;;;;8.24;57.65;101320.25;5023724;28;20320;-55
2022/04/13 05:54:58;;;;;;;9.90;8.43;;;;;;;8.36;58.28;101323.13;5024193;28;20302;-54
2022/04/13 05:57:26;;;;;;;9.63;8.40;;;;;;;8.38;57.85;101320.53;5024005;28;20276;-54
2022/04/13 05:59:53;;;;;;;14.07;8.50;;;;;;;8.39;57.61;101320.59;5022853;28;20236;-55
2022/04/13 06:02:19;;;;;;;11.23;7.70;;;;;;;8.55;57.82;101329.56;5019139;28;20249;-54
2022/04/13 06:04:46;;;;;;;11.57;8.63;;;;;;;8.56;57.39;101332.22;5022303;28;20259;-53
2022/04/13 06:07:13;;;;;;;10.67;8.33;;;;;;;8.65;57.76;101331.47;5015908;28;20544;-54
2022/04/13 06:09:39;;;;;;;14.23;9.30;;;;;;;8.73;57.39;101337.72;5022935;28;20257;-55
2022/04/13 06:12:06;;;;;;;18.07;8.70;;;;;;;8.82;56.76;101342.25;5017374;28;20236;-53
2022/04/13 06:14:34;;;;;;;12.43;8.40;;;;;;;8.97;56.87;101338.97;5023089;28;20706;-54
2022/04/13 06:17:01;;;;;;;11.00;9.00;;;;;;;8.89;56.38;101330.13;5030267;28;20241;-55
2022/04/13 06:19:27;;;;;;;12.17;8.70;;;;;;;8.92;56.58;101331.06;5012578;28;20310;-54
2022/04/13 06:21:53;;;;;;;11.63;8.57;;;;;;;9.03;56.60;101333.84;5022703;28;20255;-53
2022/04/13 06:24:20;;;;;;;8.97;8.00;;;;;;;9.11;56.48;101336.56;5034554;28;20236;-54
2022/04/13 06:26:46;;;;;;;11.77;9.17;;;;;;;9.23;56.62;101339.34;5023001;28;20236;-54
2022/04/13 06:29:12;;;;;;;13.87;8.83;;;;;;;9.30;56.17;101338.56;5009354;28;20243;-53
2022/04/13 06:31:40;;;;;;;12.37;8.97;;;;;;;9.38;55.47;101342.19;5022576;28;20244;-54
2022/04/13 06:34:07;;;;;;;12.70;8.87;;;;;;;9.54;54.48;101338.88;5017224;28;20808;-54
2022/04/13 06:36:33;;;;;;;12.60;8.50;;;;;;;9.58;54.69;101350.28;5018463;28;20290;-54
2022/04/13 06:38:59;;;;;;;12.23;9.23;;;;;;;9.55;54.67;101345.03;5017635;28;20766;-54
2022/04/13 06:41:26;;;;;;;10.53;8.00;;;;;;;9.62;54.38;101341.63;5021449;28;20232;-55
2022/04/13 06:43:53;;;;;;;14.17;9.77;;;;;;;9.68;54.40;101351.31;5022608;28;20274;-53
2022/04/13 06:46:20;;;;;;;15.10;9.97;;;;;;;9.71;55.97;101340.84;5026199;28;20315;-54
2022/04/13 06:48:47;;;;;;;10.93;8.33;;;;;;;9.79;54.84;101347.06;5019363;28;20229;-54
2022/04/13 06:51:14;;;;;;;10.67;8.43;;;;;;;9.81;54.76;101353.22;5017920;28;20672;-54
2022/04/13 06:53:40;;;;;;;11.80;9.73;;;;;;;9.73;54.24;101360.13;5015494;28;20770;-54
2022/04/13 06:56:06;;;;;;;14.23;8.77;;;;;;;9.88;54.01;101357.69;5002597;28;20338;-54
2022/04/13 06:58:33;;;;;;;12.33;8.53;;;;;;;10.04;53.90;101356.13;4995512;28;20264;-54
2022/04/13 07:00:59;;;;;;;9.63;8.53;;;;;;;10.17;53.30;101349.25;5016125;28;20240;-53
2022/04/13 07:03:26;;;;;;;13.70;8.87;;;;;;;10.21;53.20;101353.66;5020663;28;20232;-53
2022/04/13 07:05:54;;;;;;;14.97;8.47;;;;;;;10.31;53.90;101360.78;5022456;28;20243;-54
2022/04/13 07:08:21;;;;;;;16.83;9.07;;;;;;;10.47;52.66;101352.22;5020636;28;20334;-52
2022/04/13 07:10:47;;;;;;;12.97;8.43;;;;;;;10.58;52.76;101359.31;5022362;28;20235;-54
2022/04/13 07:13:16;;;;;;;13.83;8.80;;;;;;;10.68;52.30;101361.16;5017785;28;20232;-53
2022/04/13 07:15:42;;;;;;;13.87;7.87;;;;;;;10.74;51.78;101355.97;5024924;28;20428;-52
2022/04/13 07:18:10;;;;;;;15.93;8.57;;;;;;;10.96;50.57;101367.50;5014368;28;20228;-54
2022/04/13 07:20:36;;;;;;;10.67;8.83;;;;;;;11.01;50.43;101364.91;5037969;28;20657;-53
2022/04/13 07:23:04;;;;;;;10.90;8.27;;;;;;;11.11;50.48;101369.38;5020029;28;20656;-54
2022/04/13 07:25:31;;;;;;;12.73;8.10;;;;;;;11.26;49.91;101372.09;5028497;28;20290;-61
2022/04/13 07:27:57;;;;;;;15.97;8.43;;;;;;;11.28;51.05;101365.09;5028522;28;20294;-54
2022/04/13 07:30:23;;;;;;;12.90;8.67;;;;;;;11.51;49.62;101372.22;5029572;28;20753;-54
2022/04/13 07:32:53;;;;;;;12.93;8.63;;;;;;;11.54;49.54;101365.25;5022917;28;20294;-53
2022/04/13 07:35:19;;;;;;;13.10;7.57;;;;;;;11.57;49.95;101367.00;5021975;28;20291;-54
2022/04/13 07:37:45;;;;;;;11.83;8.50;;;;;;;11.57;49.88;101372.28;5023885;28;20278;-52
2022/04/13 07:40:14;;;;;;;15.20;9.63;;;;;;;11.71;48.67;101375.84;5018933;28;22344;-53
2022/04/13 07:42:41;;;;;;;12.40;8.50;;;;;;;11.72;49.15;101372.34;5021784;28;20287;-54
2022/04/13 07:45:09;;;;;;;11.63;8.20;;;;;;;11.77;49.50;101375.88;5020346;28;20240;-54
2022/04/13 07:47:35;;;;;;;11.67;8.60;;;;;;;11.87;49.32;101372.47;5035188;28;20671;-56
2022/04/13 07:50:02;;;;;;;12.03;8.23;;;;;;;11.93;48.23;101377.75;5011811;28;20236;-54
2022/04/13 07:52:33;;;;;;;15.27;8.52;;;;;;;12.01;48.05;101374.25;5027439;28;20665;-53
2022/04/13 07:54:59;;;;;;;10.70;8.30;;;;;;;12.01;49.10;101377.78;5012331;28;20236;-56
2022/04/13 07:57:27;;;;;;;10.68;8.48;;;;;;;12.13;48.48;101377.78;5025894;28;20232;-54
2022/04/13 07:59:53;;;;;;;10.85;7.90;;;;;;;12.13;48.66;101379.56;5021394;28;20774;-54
2022/04/13 08:02:21;;;;;;;11.38;8.57;;;;;;;12.36;48.05;101377.00;5023880;28;20639;-55
2022/04/13 08:04:48;;;;;;;10.65;8.35;;;;;;;12.59;47.47;101374.38;5021424;28;20237;-55
2022/04/13 08:07:15;;;;;;;9.27;7.68;;;;;;;12.79;46.78;101377.91;5025593;28;20315;-53
2022/04/13 08:09:42;;;;;;;8.93;7.97;;;;;;;12.95;46.58;101388.44;5026490;28;20240;-53
2022/04/13 08:12:09;;;;;;;14.02;8.52;;;;;;;13.05;45.95;101379.66;5024612;28;20236;-53
2022/04/13 08:14:37;;;;;;;14.77;8.07;;;;;;;13.33;45.38;101376.13;5022930;28;20251;-54
2022/04/13 08:17:05;;;;;;;12.63;8.93;;;;;;;13.30;45.62;101375.25;5026027;28;20236;-53
2022/04/13 08:19:31;;;;;;;10.60;7.50;;;;;;;13.54;44.86;101379.59;5014761;28;20244;-54
2022/04/13 08:21:57;;;;;;;12.40;8.02;;;;;;;13.50;44.80;101377.84;5016110;28;20276;-52
2022/04/13 08:24:24;;;;;;;13.35;9.15;;;;;;;13.58;44.46;101376.97;5017020;28;20240;-53
2022/04/13 08:26:50;;;;;;;10.73;7.43;;;;;;;13.64;45.15;101383.97;5024534;28;20260;-53
2022/04/13 08:29:17;;;;;;;14.52;9.50;;;;;;;13.76;44.24;101370.75;5011559;28;20567;-53
2022/04/13 08:31:44;;;;;;;15.00;8.50;;;;;;;13.87;44.61;101375.97;5017924;28;20248;-53
2022/04/13 08:34:11;;;;;;;12.32;8.52;;;;;;;13.84;44.65;101373.34;5019176;28;20236;-53
2022/04/13 08:36:37;;;;;;;11.15;8.48;;;;;;;14.22;42.87;101381.06;5011531;28;20589;-53
2022/04/13 08:39:04;;;;;;;13.10;8.48;;;;;;;14.20;43.32;101379.31;5016374;28;20311;-54
2022/04/13 08:41:41;;;;;;;12.57;8.57;;;;;;;14.16;43.83;101381.09;5014697;28;20291;-59
2022/04/13 08:44:12;;;;;;;10.60;7.85;;;;;;;14.21;43.92;101383.72;5021838;28;20252;-55
2022/04/13 08:46:40;;;;;;;10.77;7.78;;;;;;;14.27;43.63;101383.69;5024495;28;20243;-54
2022/04/13 08:49:10;;;;;;;14.15;9.43;;;;;;;14.43;42.29;101376.56;5023673;28;20244;-54
2022/04/13 08:51:37;;;;;;;12.68;10.05;;;;;;;14.41;42.83;101370.38;5021386;28;20637;-53
2022/04/13 08:54:11;;;;;;;12.43;8.48;;;;;;;14.40;42.98;101368.66;5019827;28;20695;-51
2022/04/13 08:56:40;;;;;;;11.70;7.85;;;;;;;14.54;41.86;101372.97;5019877;28;20241;-53
2022/04/13 08:59:12;;;;;;;13.60;9.32;;;;;;;14.70;41.81;101378.13;5022216;28;20698;-53
2022/04/13 09:01:46;;;;;;;12.13;8.70;;;;;;;14.83;42.09;101373.63;5024199;28;20267;-52
2022/04/13 09:04:16;;;;;;;10.80;8.73;;;;;;;15.16;41.56;101370.69;5023470;28;20224;-53
2022/04/13 09:06:43;;;;;;;12.60;9.15;;;;;;;15.45;40.62;101365.09;5025526;28;20729;-53
2022/04/13 09:09:15;;;;;;;14.07;9.23;;;;;;;15.46;41.28;101363.31;5022791;28;20496;-51
2022/04/13 09:11:44;;;;;;;12.75;8.70;;;;;;;15.50;40.71;101357.09;5026422;28;20228;-52
2022/04/13 09:14:12;;;;;;;15.90;8.90;;;;;;;15.41;41.63;101360.75;5023721;28;20965;-52
2022/04/13 09:16:39;;;;;;;15.38;9.50;;;;;;;15.62;40.58;101361.38;5024989;28;20291;-52
2022/04/13 09:19:07;;;;;;;15.02;10.48;;;;;;;15.70;40.46;101355.13;5027534;28;20243;-53
2022/04/13 09:21:35;;;;;;;11.93;7.88;;;;;;;15.88;40.38;101353.16;5025368;28;20256;-53
2022/04/13 09:24:02;;;;;;;10.82;7.82;;;;;;;15.71;40.64;101356.88;5019629;28;20303;-53
2022/04/13 09:26:29;;;;;;;14.63;8.07;;;;;;;15.86;39.54;101354.94;5022236;28;20742;-52
2022/04/13 09:28:55;;;;;;;15.82;9.10;;;;;;;15.95;39.94;101357.47;5024669;28;20322;-54
2022/04/13 09:31:22;;;;;;;12.10;8.45;;;;;;;15.73;40.16;101352.44;5023317;28;20244;-53
2022/04/13 09:33:49;;;;;;;11.05;8.73;;;;;;;15.70;40.29;101356.91;5028730;28;20737;-53
2022/04/13 09:36:15;;;;;;;11.52;9.10;;;;;;;15.64;40.71;101357.81;5020371;28;20688;-52
2022/04/13 09:38:43;;;;;;;12.18;8.13;;;;;;;15.74;40.77;101356.84;5023666;28;20236;-52
2022/04/13 09:41:10;;;;;;;12.18;7.80;;;;;;;15.97;40.84;101358.34;5024362;28;20335;-51
2022/04/13 09:43:37;;;;;;;11.90;8.15;;;;;;;16.06;39.85;101347.59;5023855;28;20233;-53
2022/04/13 09:46:04;;;;;;;14.45;8.68;;;;;;;16.10;40.32;101354.59;5022450;28;20240;-52
2022/04/13 09:48:30;;;;;;;11.52;8.27;;;;;;;15.90;40.66;101346.94;5021536;28;20240;-53
2022/04/13 09:50:58;;;;;;;17.08;9.10;;;;;;;16.25;39.56;101342.94;5021580;28;20228;-53
2022/04/13 09:53:25;;;;;;;11.15;8.57;;;;;;;16.45;39.26;101346.13;5016357;28;20229;-54
2022/04/13 09:55:53;;;;;;;12.25;8.63;;;;;;;16.83;39.21;101342.03;5021025;28;20251;-54
2022/04/13 09:58:22;;;;;;;10.93;8.57;;;;;;;16.76;38.79;101340.38;5019529;28;20228;-53
2022/04/13 10:00:50;;;;;;;12.13;8.82;;;;;;;16.86;39.28;101334.03;5016153;28;20728;-53
2022/04/13 10:03:18;;;;;;;12.07;8.68;;;;;;;17.03;37.74;101338.16;5023422;28;20268;-53
2022/04/13 10:05:45;;;;;;;12.73;7.78;;;;;;;16.92;38.13;101335.72;5016701;28;20533;-53
2022/04/13 10:08:13;;;;;;;13.55;8.85;;;;;;;16.73;38.13;101323.63;5023502;28;20311;-53
2022/04/13 10:10:41;;;;;;;13.95;9.98;;;;;;;16.83;38.62;101330.53;5017461;28;20303;-52
2022/04/13 10:13:08;;;;;;;11.57;8.80;;;;;;;16.99;37.55;101332.03;5023291;28;20233;-54
2022/04/13 10:15:35;;;;;;;10.48;7.65;;;;;;;16.95;37.81;101330.31;5021697;28;20298;-53
2022/04/13 10:18:05;;;;;;;11.20;7.35;;;;;;;16.65;38.75;101329.91;5021082;28;20736;-54
2022/04/13 10:20:44;;;;;;;12.90;8.23;;;;;;;17.06;38.04;101323.06;5018615;28;20323;-55
2022/04/13 10:23:11;;;;;;;15.75;8.75;;;;;;;17.40;37.38;101327.72;5027247;28;20286;-53
2022/04/13 10:25:38;;;;;;;11.35;8.68;;;;;;;17.50;37.51;101333.72;5014419;28;20283;-52
2022/04/13 10:28:05;;;;;;;14.38;9.38;;;;;;;17.49;37.69;101322.22;5021579;28;20302;-54
2022/04/13 10:30:34;;;;;;;11.25;8.05;;;;;;;17.55;37.39;101332.72;5021772;28;20228;-54
2022/04/13 10:33:02;;;;;;;14.02;7.85;;;;;;;17.44;37.11;101334.69;5020951;28;20239;-54
2022/04/13 10:35:30;;;;;;;9.93;7.78;;;;;;;17.55;37.07;101330.06;5022520;28;20253;-54
2022/04/13 10:37:56;;;;;;;10.20;7.47;;;;;;;17.55;37.12;101319.47;5030380;28;20228;-53
2022/04/13 10:40:24;;;;;;;11.50;8.60;;;;;;;17.65;37.17;101322.78;5019650;28;20236;-54
2022/04/13 10:42:51;;;;;;;11.45;8.55;;;;;;;17.80;37.76;101322.50;5020022;28;20435;-53
2022/04/13 10:45:18;;;;;;;8.02;7.25;;;;;;;17.78;37.35;101318.13;5022145;28;20324;-54
2022/04/13 10:47:51;;;;;;;10.85;7.47;;;;;;;18.01;37.50;101322.94;5022433;28;20259;-54
2022/04/13 10:50:21;;;;;;;12.77;7.80;;;;;;;18.09;36.63;101324.50;5020502;28;20240;-55
2022/04/13 10:52:53;;;;;;;14.05;9.40;;;;;;;17.97;36.65;101324.81;5022693;28;20660;-55
2022/04/13 10:55:20;;;;;;;9.30;7.45;;;;;;;17.59;37.49;101326.44;5020220;28;20244;-53
2022/04/13 10:57:50;;;;;;;11.13;8.25;;;;;;;17.98;36.83;101320.34;5024077;28;20239;-54
2022/04/13 11:00:18;;;;;;;10.30;8.38;;;;;;;18.05;36.68;101320.19;5017491;28;20310;-53
2022/04/13 11:02:51;;;;;;;10.32;7.78;;;;;;;18.22;36.15;101311.81;5020367;28;20378;-55
2022/04/13 11:05:18;;;;;;;11.25;7.40;;;;;;;18.43;35.45;101318.41;5024185;28;20237;-53
2022/04/13 11:07:45;;;;;;;8.65;7.13;;;;;;;18.60;35.50;101315.31;5023142;28;20263;-54
2022/04/13 11:10:17;;;;;;;10.70;8.35;;;;;;;18.28;35.13;101319.63;5021378;28;20279;-54
2022/04/13 11:12:44;;;;;;;10.77;7.45;;;;;;;18.47;34.53;101320.09;5020064;28;20228;-54
2022/04/13 11:15:10;;;;;;;11.02;7.68;;;;;;;18.66;35.17;101319.63;5022790;28;20711;-54
2022/04/13 11:17:41;;;;;;;14.65;7.95;;;;;;;18.68;35.91;101320.47;5022952;28;20228;-54
2022/04/13 11:20:22;;;;;;;12.93;7.90;;;;;;;18.82;35.22;101318.38;5025140;28;20302;-55
2022/04/13 11:23:07;;;;;;;10.13;6.90;;;;;;;18.58;35.80;101312.72;5028823;28;20244;-54
2022/04/13 11:25:44;;;;;;;13.77;7.22;;;;;;;18.73;35.16;101316.78;5028011;28;20240;-55
2022/04/13 11:28:10;;;;;;;10.65;7.40;;;;;;;18.86;35.31;101320.03;5031051;28;20833;-54